地図

経路データ

SID SEASON NUMBER BASIN SUBBASIN NAME ISO_TIME NATURE LAT LON WMO_WIND WMO_PRES WMO_AGENCY TRACK_TYPE DIST2LAND LANDFALL IFLAG USA_AGENCY USA_ATCF_ID USA_LAT USA_LON USA_RECORD USA_STATUS USA_WIND USA_PRES USA_SSHS USA_R34_NE USA_R34_SE USA_R34_SW USA_R34_NW USA_R50_NE USA_R50_SE USA_R50_SW USA_R50_NW USA_R64_NE USA_R64_SE USA_R64_SW USA_R64_NW USA_POCI USA_ROCI USA_RMW USA_EYE TOKYO_LAT TOKYO_LON TOKYO_GRADE TOKYO_WIND TOKYO_PRES TOKYO_R50_DIR TOKYO_R50_LONG TOKYO_R50_SHORT TOKYO_R30_DIR TOKYO_R30_LONG TOKYO_R30_SHORT TOKYO_LAND CMA_LAT CMA_LON CMA_CAT CMA_WIND CMA_PRES HKO_LAT HKO_LON HKO_CAT HKO_WIND HKO_PRES NEWDELHI_LAT NEWDELHI_LON NEWDELHI_GRADE NEWDELHI_WIND NEWDELHI_PRES NEWDELHI_CI NEWDELHI_DP NEWDELHI_POCI REUNION_LAT REUNION_LON REUNION_TYPE REUNION_WIND REUNION_PRES REUNION_TNUM REUNION_CI REUNION_RMW REUNION_R34_NE REUNION_R34_SE REUNION_R34_SW REUNION_R34_NW REUNION_R50_NE REUNION_R50_SE REUNION_R50_SW REUNION_R50_NW REUNION_R64_NE REUNION_R64_SE REUNION_R64_SW REUNION_R64_NW BOM_LAT BOM_LON BOM_TYPE BOM_WIND BOM_PRES BOM_TNUM BOM_CI BOM_RMW BOM_R34_NE BOM_R34_SE BOM_R34_SW BOM_R34_NW BOM_R50_NE BOM_R50_SE BOM_R50_SW BOM_R50_NW BOM_R64_NE BOM_R64_SE BOM_R64_SW BOM_R64_NW BOM_ROCI BOM_POCI BOM_EYE BOM_POS_METHOD BOM_PRES_METHOD NADI_LAT NADI_LON NADI_CAT NADI_WIND NADI_PRES WELLINGTON_LAT WELLINGTON_LON WELLINGTON_WIND WELLINGTON_PRES DS824_LAT DS824_LON DS824_STAGE DS824_WIND DS824_PRES TD9636_LAT TD9636_LON TD9636_STAGE TD9636_WIND TD9636_PRES TD9635_LAT TD9635_LON TD9635_WIND TD9635_PRES TD9635_ROCI NEUMANN_LAT NEUMANN_LON NEUMANN_CLASS NEUMANN_WIND NEUMANN_PRES MLC_LAT MLC_LON MLC_CLASS MLC_WIND MLC_PRES USA_GUST BOM_GUST BOM_GUST_PER REUNION_GUST REUNION_GUST_PER USA_SEAHGT USA_SEARAD_NE USA_SEARAD_SE USA_SEARAD_SW USA_SEARAD_NW STORM_SPEED STORM_DIR
1959270N17092 1959 86 NI BB NOT_NAMED 1959-09-26 18:00:00 TS 16.7000 91.6000 main 288 288 O________O____ jtwc_io IO111959 16.7000 91.6000 -1 16.7000 91.6000 TC 2 292
1959270N17092 1959 86 NI BB NOT_NAMED 1959-09-26 21:00:00 TS 16.7325 91.5175 main 298 298 P________P____ IO111959 16.7325 91.5175 -1 16.7325 91.5175 TC 2 298
1959270N17092 1959 86 NI BB NOT_NAMED 1959-09-27 00:00:00 TS 16.8000 91.4000 main 310 310 O________O____ jtwc_io IO111959 16.8000 91.4000 -1 16.8000 91.4000 TC 25 3 304
1959270N17092 1959 86 NI BB NOT_NAMED 1959-09-27 03:00:00 TS 16.9244 91.2200 main 333 333 P________PO___ IO111959 16.9275 91.2225 -1 16.9275 91.2225 TC 25 16.9000 91.2000 1 5 308
1959270N17092 1959 86 NI BB NOT_NAMED 1959-09-27 06:00:00 TS 17.1004 90.9926 main 355 355 O________OP___ jtwc_io IO111959 17.1000 91.0000 -1 17.1000 91.0000 TC 25 17.1018 90.9629 1 6 309
1959270N17092 1959 86 NI BB NOT_NAMED 1959-09-27 09:00:00 TS 17.2953 90.7447 main 369 363 P________PP___ IO111959 17.2925 90.7500 -1 17.2925 90.7500 TC 25 17.3028 90.7304 1 6 311
1959270N17092 1959 86 NI BB NOT_NAMED 1959-09-27 12:00:00 TS 17.5008 90.5026 main 377 377 O________OP___ jtwc_io IO111959 17.5000 90.5000 -1 17.5000 90.5000 TC 25 17.5023 90.5077 1 6 313
1959270N17092 1959 86 NI BB NOT_NAMED 1959-09-27 15:00:00 TS 17.7050 90.2900 main 383 383 P________PO___ IO111959 17.7075 90.2850 -1 17.7075 90.2850 TC 25 17.7000 90.3000 1 6 316
1959270N17092 1959 86 NI BB NOT_NAMED 1959-09-27 18:00:00 TS 17.8981 90.1040 main 383 382 O________OP___ jtwc_io IO111959 17.9000 90.1000 -1 17.9000 90.1000 TC 25 17.8943 90.1121 1 5 317
1959270N17092 1959 86 NI BB NOT_NAMED 1959-09-27 21:00:00 TS 18.0650 89.9391 main 383 376 P________PP___ IO111959 18.0575 89.9350 -1 18.0575 89.9350 TC 25 18.0799 89.9474 1 4 318
1959270N17092 1959 86 NI BB NOT_NAMED 1959-09-28 00:00:00 TS 18.2169 89.8030 main 384 363 O________OP___ jtwc_io IO111959 18.2000 89.8000 -1 18.2000 89.8000 TC 25 18.2506 89.8091 1 4 322
1959270N17092 1959 86 NI BB NOT_NAMED 1959-09-28 03:00:00 TS 18.3717 89.6850 main 363 350 P________PO___ IO111959 18.3575 89.6775 -1 18.3575 89.6775 TC 25 18.4000 89.7000 1 3 328
1959270N17092 1959 86 NI BB NOT_NAMED 1959-09-28 06:00:00 TS 18.5044 89.6097 main 350 339 O________OP___ jtwc_io IO111959 18.5000 89.6000 -1 18.5000 89.6000 TC 25 18.5133 89.6291 1 3 339
1959270N17092 1959 86 NI BB NOT_NAMED 1959-09-28 09:00:00 TS 18.6074 89.5949 main 339 328 P________PP___ IO111959 18.6075 89.5999 -1 18.6075 89.5999 TC 25 18.6074 89.5847 1 2 0
1959270N17092 1959 86 NI BB NOT_NAMED 1959-09-28 12:00:00 TS 18.6992 89.5826 main 328 315 O________OP___ jtwc_io IO111959 18.7000 89.6000 -1 18.7000 89.6000 TC 25 18.6977 89.5479 1 2 337
1959270N17092 1959 86 NI BB NOT_NAMED 1959-09-28 15:00:00 TS 18.7900 89.5100 main 315 303 P________PO___ IO111959 18.7850 89.5150 -1 18.7850 89.5150 TC 25 18.8000 89.5000 1 3 321
1959270N17092 1959 86 NI BB NOT_NAMED 1959-09-28 18:00:00 TS 18.9132 89.4021 main 303 280 O________OP___ jtwc_io IO111959 18.9000 89.4000 -1 18.9000 89.4000 TC 25 18.9397 89.4063 1 4 327
1959270N17092 1959 86 NI BB NOT_NAMED 1959-09-28 21:00:00 TS 19.0975 89.3001 main 280 257 P________PP___ IO111959 19.1000 89.3000 -1 19.1000 89.3000 TC 25 19.0926 89.3001 1 4 333
1959270N17092 1959 86 NI BB NOT_NAMED 1959-09-29 00:00:00 TS 19.2830 89.1979 main 257 246 O________OP___ jtwc_io IO111959 19.3000 89.2000 -1 19.3000 89.2000 TC 25 19.2491 89.1938 1 4 327
1959270N17092 1959 86 NI BB NOT_NAMED 1959-09-29 03:00:00 TS 19.4050 89.0900 main 246 234 P________PO___ IO111959 19.4075 89.0850 -1 19.4075 89.0850 TC 25 19.4000 89.1000 1 3 323
1959270N17092 1959 86 NI BB NOT_NAMED 1959-09-29 06:00:00 TS 19.5107 89.0145 main 234 223 O________OP___ jtwc_io IO111959 19.5000 89.0000 -1 19.5000 89.0000 TC 25 19.5321 89.0436 1 3 341
1959270N17092 1959 86 NI BB NOT_NAMED 1959-09-29 09:00:00 TS 19.6525 88.9999 main 212 201 P________PP___ IO111959 19.6500 88.9999 -1 19.6500 88.9999 TC 25 19.6574 88.9998 1 3 358
1959270N17092 1959 86 NI BB NOT_NAMED 1959-09-29 12:00:00 TS 19.7930 88.9854 main 201 190 O________OP___ jtwc_io IO111959 19.8000 89.0000 -1 19.8000 89.0000 TC 25 19.7790 88.9561 1 3 341
1959270N17092 1959 86 NI BB NOT_NAMED 1959-09-29 15:00:00 TS 19.9000 88.9050 main 190 178 P________PO___ IO111959 19.9000 88.9075 -1 19.9000 88.9075 TC 30 19.9000 88.9000 1 3 322
1959270N17092 1959 86 NI BB NOT_NAMED 1959-09-29 18:00:00 TS 20.0002 88.8141 main 179 168 O________OP___ jtwc_io IO111959 20.0000 88.8000 -1 20.0000 88.8000 TC 35 20.0005 88.8424 1 3 330
1959270N17092 1959 86 NI BB NOT_NAMED 1959-09-29 21:00:00 TS 20.1299 88.7656 main 168 146 P________PP___ IO111959 20.1425 88.7649 -1 20.1425 88.7649 TC 50 20.1047 88.7668 1 3 337
1959270N17092 1959 86 NI BB NOT_NAMED 1959-09-30 00:00:00 TS 20.2772 88.6860 main 146 134 O________OP___ jtwc_io IO111959 20.3000 88.7000 -1 20.3000 88.7000 TC 65 20.2316 88.6579 1 4 322
1959270N17092 1959 86 NI BB NOT_NAMED 1959-09-30 03:00:00 TS 20.4183 88.5249 main 134 111 P________PO___ IO111959 20.4275 88.5374 -1 20.4275 88.5374 TC 50 20.4000 88.5000 4 5 313
1959270N17092 1959 86 NI BB NOT_NAMED 1959-09-30 06:00:00 TS 20.6147 88.2946 main 111 80 O________OP___ jtwc_io IO111959 20.6000 88.3000 -1 20.6000 88.3000 TC 35 20.6441 88.2838 4 7 315
1959270N17092 1959 86 NI BB NOT_NAMED 1959-09-30 09:00:00 TS 20.8992 88.0161 main 80 54 P________PP___ IO111959 20.8850 88.0151 -1 20.8850 88.0151 TC 35 20.9276 88.0180 4 8 317
1959270N17092 1959 86 NI BB NOT_NAMED 1959-09-30 12:00:00 TS 21.2074 87.7060 main 54 11 O________OP___ jtwc_io IO111959 21.2000 87.7000 -1 21.2000 87.7000 TC 35 21.2222 87.7181 4 8 315
1959270N17092 1959 86 NI BB NOT_NAMED 1959-09-30 15:00:00 TS 21.4766 87.4049 main 11 0 P________PO___ IO111959 21.4649 87.4074 -1 21.4649 87.4074 TC 30 21.5000 87.4000 2 8 311
1959270N17092 1959 86 NI BB NOT_NAMED 1959-09-30 18:00:00 TS 21.7058 87.0963 main 0 0 O________OP___ jtwc_io IO111959 21.7000 87.1000 -1 21.7000 87.1000 TC 25 21.7174 87.0889 2 7 306
1959270N17092 1959 86 NI BB NOT_NAMED 1959-09-30 21:00:00 TS 21.9100 86.7547 main 0 0 P________PP___ IO111959 21.9075 86.7499 -1 21.9075 86.7499 TC 25 21.9149 86.7644 2 8 302
1959270N17092 1959 86 NI BB NOT_NAMED 1959-10-01 00:00:00 TS 22.1016 86.4109 main 0 0 O________OP___ jtwc_io IO111959 22.1000 86.4000 -1 22.1000 86.4000 TC 25 22.1049 86.4327 2 7 302
1959270N17092 1959 86 NI BB NOT_NAMED 1959-10-01 03:00:00 TS 22.2949 86.0999 main 0 0 P________PO___ IO111959 22.2924 86.0998 -1 22.2924 86.0998 TC 25 22.3000 86.1000 1 7 306
1959270N17092 1959 86 NI BB NOT_NAMED 1959-10-01 06:00:00 TS 22.5058 85.7983 main 0 0 O________OP___ jtwc_io IO111959 22.5000 85.8000 -1 22.5000 85.8000 TC 25 22.5173 85.7948 1 7 308
1959270N17092 1959 86 NI BB NOT_NAMED 1959-10-01 09:00:00 TS 22.7472 85.4673 main 0 0 P________PP___ IO111959 22.7500 85.4575 -1 22.7500 85.4575 TC 25 22.7417 85.4868 1 8 308
1959270N17092 1959 86 NI BB NOT_NAMED 1959-10-01 12:00:00 TS 22.9901 85.1201 main 0 0 O________OP___ jtwc_io IO111959 23.0000 85.1000 -1 23.0000 85.1000 TC 25 22.9703 85.1603 1 8 305
1959270N17092 1959 86 NI BB NOT_NAMED 1959-10-01 15:00:00 TS 23.1999 84.7765 main 0 0 P________PO___ IO111959 23.1998 84.7647 -1 23.1998 84.7647 TC 25 23.2000 84.8000 1 8 302
1959270N17092 1959 86 NI BB NOT_NAMED 1959-10-01 18:00:00 TS 23.4112 84.3979 main 0 0 O________OP___ jtwc_io IO111959 23.4000 84.4000 -1 23.4000 84.4000 TC 25 23.4281 84.3947 1 9 301
1959270N17092 1959 86 NI BB NOT_NAMED 1959-10-01 21:00:00 TS 23.6448 83.9624 main 0 0 P________PP___ IO111959 23.6379 83.9705 -1 23.6379 83.9705 TC 25 23.6541 83.9516 1 10 300
1959270N17092 1959 86 NI BB NOT_NAMED 1959-10-02 00:00:00 TS 23.8890 83.4913 main 0 0 O________OP___ jtwc_io IO111959 23.9000 83.5000 -1 23.9000 83.5000 TC 25 23.8780 83.4826 1 10 297
1959270N17092 1959 86 NI BB NOT_NAMED 1959-10-02 03:00:00 NR 24.1000 83.0000 main 0 __________O___ IO111959 -1 TC 24.1000 83.0000 1 10 295

IBTrACS Databaseについて

本データベースは、米国NOAAが公開する1842年以降の世界の熱帯低気圧のベストトラックデータアーカイブInternational Best Track Archive for Climate Stewardship (IBTrACS)を、ウェブで閲覧しやすい形式に変換したものです。

最終更新日:2021-11-26